Time;durP1;ratioP1;P1;durP2;ratioP2;P2;SDS_P1;SDS_P2;PMS_P1;PMS_P2;Temp;Humidity;BMP_temperature;BMP_pressure;BME280_temperature;BME280_humidity;BME280_pressure;Samples;Min_cycle;Max_cycle;Signal;HPM_P1;HPM_P2
2023/03/23 00:02:05;;;;;;;8.03;7.23;;;;;;;8.49;100.00;98909.19;6171546;23;20650;-86
2023/03/23 00:04:32;;;;;;;7.73;7.03;;;;;;;8.45;100.00;98899.16;6171898;23;20219;-85
2023/03/23 00:07:02;;;;;;;8.90;7.37;;;;;;;8.42;100.00;98896.97;6148418;23;20238;-85
2023/03/23 00:09:29;;;;;;;8.07;7.00;;;;;;;8.30;100.00;98910.25;6146862;23;20165;-85
2023/03/23 00:12:04;;;;;;;9.77;7.20;;;;;;;8.28;100.00;98906.94;6172766;23;20627;-85
2023/03/23 00:14:40;;;;;;;8.67;6.80;;;;;;;8.21;100.00;98911.53;6173751;23;20192;-86
2023/03/23 00:17:10;;;;;;;10.47;6.93;;;;;;;8.16;100.00;98912.22;6173747;23;20153;-86
2023/03/23 00:19:51;;;;;;;8.53;7.10;;;;;;;8.16;100.00;98903.38;6173104;23;20184;-86
2023/03/23 00:22:19;;;;;;;7.80;7.00;;;;;;;8.09;100.00;98907.97;6174556;23;20180;-85
2023/03/23 00:24:50;;;;;;;9.00;7.13;;;;;;;8.07;100.00;98910.06;6196620;23;20188;-86
2023/03/23 00:27:17;;;;;;;9.30;6.97;;;;;;;8.01;100.00;98902.91;6148024;23;20168;-86
2023/03/23 00:29:45;;;;;;;8.53;5.23;;;;;;;8.03;100.00;98907.00;6196562;23;20165;-84
2023/03/23 00:32:14;;;;;;;6.80;6.10;;;;;;;8.02;100.00;98908.03;6171765;23;20172;-84
2023/03/23 00:34:42;;;;;;;7.37;6.33;;;;;;;8.03;100.00;98915.00;6171878;23;20615;-87
2023/03/23 00:37:12;;;;;;;7.73;6.33;;;;;;;7.95;100.00;98902.75;6147849;23;20165;-87
2023/03/23 00:39:38;;;;;;;6.57;5.83;;;;;;;7.95;100.00;98908.09;6172236;23;20161;-84
2023/03/23 00:42:08;;;;;;;6.90;6.20;;;;;;;7.88;100.00;98910.03;6172082;23;20174;-87
2023/03/23 00:44:34;;;;;;;6.87;6.27;;;;;;;7.90;100.00;98909.78;6172744;23;20184;-86
2023/03/23 00:47:01;;;;;;;6.70;6.10;;;;;;;7.85;100.00;98910.44;6171960;23;20607;-84
2023/03/23 00:49:27;;;;;;;6.77;6.17;;;;;;;7.81;100.00;98911.91;6171907;23;20184;-86
2023/03/23 00:51:55;;;;;;;6.60;5.87;;;;;;;7.73;100.00;98908.72;6171954;23;20266;-85
2023/03/23 00:54:24;;;;;;;7.47;6.77;;;;;;;7.67;100.00;98907.75;6196110;23;20188;-84
2023/03/23 00:56:50;;;;;;;6.90;6.13;;;;;;;7.60;100.00;98907.00;6147399;23;20169;-85
2023/03/23 00:59:16;;;;;;;7.10;6.40;;;;;;;7.65;100.00;98901.78;6192736;22;20548;-85
2023/03/23 01:01:50;;;;;;;9.30;6.80;;;;;;;7.54;100.00;98894.53;6177773;22;20172;-86
2023/03/23 01:04:16;;;;;;;7.20;6.57;;;;;;;7.48;100.00;98904.19;6203205;22;20172;-85
2023/03/23 01:06:44;;;;;;;8.50;6.70;;;;;;;7.45;100.00;98901.97;6176461;22;20194;-86
2023/03/23 01:09:14;;;;;;;7.73;6.70;;;;;;;7.39;100.00;98900.19;6179142;22;20239;-86
2023/03/23 01:11:41;;;;;;;8.47;7.00;;;;;;;7.37;100.00;98902.22;6176903;22;20160;-85
2023/03/23 01:14:07;;;;;;;8.70;6.80;;;;;;;7.30;100.00;98901.47;6201569;22;20172;-85
2023/03/23 01:16:39;;;;;;;8.37;6.77;;;;;;;7.30;100.00;98905.97;6202380;22;20170;-85
2023/03/23 01:19:09;;;;;;;7.17;6.47;;;;;;;7.27;100.00;98909.09;6197043;23;20244;-86
2023/03/23 01:21:41;;;;;;;7.87;6.43;;;;;;;7.24;100.00;98906.84;6175952;22;20186;-86
2023/03/23 01:24:07;;;;;;;6.90;6.20;;;;;;;7.15;100.00;98916.94;6201347;22;20210;-85
2023/03/23 01:26:35;;;;;;;7.57;6.70;;;;;;;7.13;100.00;98903.03;6202301;22;20486;-85
2023/03/23 01:29:02;;;;;;;8.37;7.00;;;;;;;7.08;100.00;98911.66;6201390;22;20452;-85
2023/03/23 01:31:29;;;;;;;8.47;7.27;;;;;;;7.06;100.00;98908.38;6177385;22;20168;-85
2023/03/23 01:33:55;;;;;;;10.93;6.93;;;;;;;7.02;100.00;98907.19;6200669;22;20231;-86
2023/03/23 01:36:28;;;;;;;7.80;7.00;;;;;;;6.96;100.00;98916.03;6227467;22;20527;-84
2023/03/23 01:39:02;;;;;;;6.93;6.23;;;;;;;6.91;100.00;98912.38;6203497;22;20160;-84
2023/03/23 01:41:29;;;;;;;7.90;7.07;;;;;;;6.91;100.00;98913.19;6201671;22;20148;-86
2023/03/23 01:44:06;;;;;;;7.20;6.50;;;;;;;6.90;100.00;98911.56;6201731;22;20164;-83
2023/03/23 01:46:47;;;;;;;7.63;6.73;;;;;;;6.90;100.00;98908.91;6207103;22;20198;-86
2023/03/23 01:49:18;;;;;;;7.50;6.70;;;;;;;6.85;100.00;98902.59;6203195;22;20163;-84
2023/03/23 01:51:53;;;;;;;8.17;6.00;;;;;;;6.82;100.00;98910.97;6201776;22;20747;-86
2023/03/23 01:54:20;;;;;;;7.00;6.13;;;;;;;6.86;100.00;98909.56;6201815;22;20173;-85
2023/03/23 01:56:59;;;;;;;6.87;6.17;;;;;;;6.83;100.00;98901.97;6226828;22;20204;-84
2023/03/23 01:59:26;;;;;;;7.57;6.20;;;;;;;6.77;100.00;98900.16;6196114;23;20284;-85
2023/03/23 02:02:14;;;;;;;7.83;6.30;;;;;;;6.78;100.00;98899.94;6158720;23;20165;-86
2023/03/23 02:04:44;;;;;;;7.43;6.63;;;;;;;6.72;100.00;98902.66;6171036;23;20188;-85
2023/03/23 02:07:12;;;;;;;7.80;6.80;;;;;;;6.67;100.00;98899.81;6147023;23;20200;-85
2023/03/23 02:09:42;;;;;;;7.70;6.50;;;;;;;6.61;100.00;98902.28;6171585;23;20177;-84
2023/03/23 02:12:08;;;;;;;7.97;6.60;;;;;;;6.59;100.00;98891.03;6196380;23;20178;-86
2023/03/23 02:14:35;;;;;;;7.57;6.77;;;;;;;6.55;100.00;98892.47;6148504;23;20251;-87
2023/03/23 02:17:34;;;;;;;8.00;6.63;;;;;;;6.44;100.00;98897.66;6196460;23;20169;-86
2023/03/23 02:20:09;;;;;;;6.97;6.23;;;;;;;6.34;100.00;98894.63;6171675;23;20628;-87
2023/03/23 02:23:00;;;;;;;7.83;6.77;;;;;;;6.29;100.00;98897.09;6196848;23;20161;-86
2023/03/23 02:25:37;;;;;;;7.27;6.57;;;;;;;6.18;100.00;98894.06;6172017;23;20187;-85
2023/03/23 02:28:24;;;;;;;8.83;7.20;;;;;;;6.16;100.00;98896.09;6197694;23;20161;-86
2023/03/23 02:31:25;;;;;;;7.60;6.87;;;;;;;6.10;100.00;98886.31;6147177;23;20604;-87
2023/03/23 02:34:02;;;;;;;7.13;6.53;;;;;;;6.14;100.00;98894.69;6171576;23;20169;-85
2023/03/23 02:36:34;;;;;;;6.83;6.27;;;;;;;6.11;100.00;98893.25;6147776;23;20169;-86
2023/03/23 02:39:17;;;;;;;7.00;6.30;;;;;;;6.08;100.00;98898.97;6148422;23;20161;-86
2023/03/23 02:41:50;;;;;;;8.03;7.00;;;;;;;6.10;100.00;98904.94;6149062;23;20162;-86
2023/03/23 02:44:19;;;;;;;6.50;5.90;;;;;;;5.98;100.00;98893.28;6199511;23;20184;-85
2023/03/23 02:46:49;;;;;;;6.83;6.23;;;;;;;6.00;100.00;98901.88;6149847;23;20256;-87
2023/03/23 02:49:16;;;;;;;7.80;6.60;;;;;;;5.96;100.00;98900.66;6198470;23;20236;-86
2023/03/23 02:51:47;;;;;;;7.17;6.13;;;;;;;5.91;100.00;98899.63;6174883;23;20172;-86
2023/03/23 02:54:17;;;;;;;7.37;6.50;;;;;;;5.92;100.00;98895.97;6148926;23;20409;-85
2023/03/23 02:56:43;;;;;;;7.10;6.30;;;;;;;5.89;100.00;98905.16;6173834;23;20172;-87
2023/03/23 02:59:17;;;;;;;8.50;6.87;;;;;;;5.97;100.00;98896.94;6198648;22;20218;-87
2023/03/23 03:01:42;;;;;;;10.33;9.03;;;;;;;5.94;100.00;98893.91;6228706;22;20172;-86
2023/03/23 03:04:14;;;;;;;10.10;8.87;;;;;;;5.96;100.00;98900.66;6203595;22;20156;-86
2023/03/23 03:06:48;;;;;;;9.30;8.40;;;;;;;5.94;100.00;98892.06;6203394;22;20192;-85
2023/03/23 03:09:23;;;;;;;8.00;7.20;;;;;;;5.87;100.00;98896.59;6229568;22;20160;-84
2023/03/23 03:11:52;;;;;;;9.67;7.20;;;;;;;5.88;100.00;98903.50;6179223;22;20246;-86
2023/03/23 03:14:47;;;;;;;7.33;6.63;;;;;;;5.87;100.00;98901.09;6203627;22;20164;-86
2023/03/23 03:17:20;;;;;;;7.33;6.63;;;;;;;5.83;100.00;98900.66;6205060;22;20152;-85
2023/03/23 03:19:48;;;;;;;7.63;6.80;;;;;;;5.87;100.00;98898.44;6203590;22;20168;-86
2023/03/23 03:22:15;;;;;;;7.13;6.43;;;;;;;5.76;100.00;98900.66;6202896;22;20164;-86
2023/03/23 03:24:42;;;;;;;8.27;6.70;;;;;;;5.61;100.00;98904.53;6202715;22;20263;-86
2023/03/23 03:27:17;;;;;;;6.67;6.07;;;;;;;5.63;100.00;98899.84;6204013;22;20172;-85
2023/03/23 03:29:59;;;;;;;7.13;6.43;;;;;;;5.62;100.00;98908.84;6184059;22;20590;-87
2023/03/23 03:32:38;;;;;;;6.87;6.27;;;;;;;5.60;100.00;98905.59;6179761;22;20164;-86
2023/03/23 03:35:05;;;;;;;7.70;6.17;;;;;;;5.60;100.00;98914.34;6203824;22;20152;-85
2023/03/23 03:37:37;;;;;;;7.40;6.10;;;;;;;5.64;100.00;98912.13;6203650;22;20172;-85
2023/03/23 03:40:11;;;;;;;9.17;6.30;;;;;;;5.55;100.00;98911.47;6203438;22;20614;-87
2023/03/23 03:42:40;;;;;;;6.90;6.20;;;;;;;5.59;100.00;98915.38;6204666;22;20191;-84
2023/03/23 03:45:11;;;;;;;6.67;5.83;;;;;;;5.56;100.00;98909.66;6178318;22;20188;-86
2023/03/23 03:47:37;;;;;;;7.10;6.10;;;;;;;5.58;100.00;98910.28;6203427;22;20169;-85
2023/03/23 03:50:03;;;;;;;6.60;6.00;;;;;;;5.54;100.00;98914.38;6178561;22;20599;-87
2023/03/23 03:52:31;;;;;;;6.63;5.80;;;;;;;5.51;100.00;98917.41;6202914;22;20172;-83
2023/03/23 03:55:00;;;;;;;7.07;6.37;;;;;;;5.57;100.00;98925.38;6203971;22;20219;-86
2023/03/23 03:57:28;;;;;;;7.40;6.60;;;;;;;5.57;100.00;98921.91;6204146;22;20168;-85
2023/03/23 04:00:14;;;;;;;7.07;6.37;;;;;;;5.54;100.00;98925.00;6209667;22;20156;-86
2023/03/23 04:02:42;;;;;;;6.73;6.13;;;;;;;5.54;100.00;98919.69;6253810;22;20191;-85
2023/03/23 04:05:09;;;;;;;7.23;6.17;;;;;;;5.52;100.00;98916.41;6203475;22;20627;-84
2023/03/23 04:07:39;;;;;;;7.00;6.30;;;;;;;5.52;100.00;98924.38;6178893;22;20233;-85
2023/03/23 04:10:08;;;;;;;6.43;5.83;;;;;;;5.52;100.00;98929.69;6203182;22;20173;-83
2023/03/23 04:12:36;;;;;;;8.00;6.27;;;;;;;5.53;100.00;98929.47;6203279;22;20168;-88
2023/03/23 04:15:36;;;;;;;7.40;6.80;;;;;;;5.49;100.00;98920.28;6243161;22;20172;-85
2023/03/23 04:18:06;;;;;;;6.80;6.13;;;;;;;5.49;100.00;98925.59;6227659;22;20156;-85
2023/03/23 04:20:34;;;;;;;6.83;6.13;;;;;;;5.44;100.00;98929.88;6203536;22;20645;-85
2023/03/23 04:23:01;;;;;;;7.13;6.43;;;;;;;5.53;100.00;98923.34;6203210;22;20175;-84
2023/03/23 04:25:32;;;;;;;8.63;6.90;;;;;;;5.47;100.00;98922.31;6202619;22;20196;-86
2023/03/23 04:28:00;;;;;;;7.90;6.87;;;;;;;5.48;100.00;98929.28;6202941;22;20157;-87
2023/03/23 04:30:31;;;;;;;7.33;6.60;;;;;;;5.43;100.00;98928.25;6228296;22;20160;-87
2023/03/23 04:33:06;;;;;;;6.73;6.13;;;;;;;5.45;100.00;98926.22;6229748;22;20160;-84
2023/03/23 04:35:34;;;;;;;6.97;6.30;;;;;;;5.43;100.00;98926.41;6203373;22;20164;-86
2023/03/23 04:38:13;;;;;;;11.43;8.53;;;;;;;5.42;100.00;98924.78;6206591;22;20160;-83
2023/03/23 04:40:41;;;;;;;25.47;15.60;;;;;;;5.45;100.00;98928.88;6252656;22;20168;-85
2023/03/23 04:43:26;;;;;;;19.03;12.13;;;;;;;5.49;100.00;98924.78;6231401;22;20175;-84
2023/03/23 04:46:11;;;;;;;8.57;7.40;;;;;;;5.47;100.00;98930.28;6231258;22;20279;-84
2023/03/23 04:48:42;;;;;;;10.80;8.10;;;;;;;5.49;100.00;98925.59;6203338;22;20186;-85
2023/03/23 04:51:18;;;;;;;7.10;6.40;;;;;;;5.52;100.00;98933.16;6206167;22;20192;-86
2023/03/23 04:53:46;;;;;;;8.03;6.77;;;;;;;5.55;100.00;98938.06;6203376;22;20164;-87
2023/03/23 04:56:13;;;;;;;7.23;6.33;;;;;;;5.57;100.00;98932.53;6202222;22;20194;-84
2023/03/23 04:58:49;;;;;;;10.57;7.13;;;;;;;5.53;100.00;98931.31;6175011;23;20203;-85
2023/03/23 05:01:27;;;;;;;12.40;9.63;;;;;;;5.60;100.00;98932.16;6222260;23;20161;-86
2023/03/23 05:04:08;;;;;;;11.90;9.53;;;;;;;5.63;100.00;98939.72;6222321;23;20254;-85
2023/03/23 05:06:38;;;;;;;21.97;14.97;;;;;;;5.67;100.00;98933.78;6222024;23;20185;-85
2023/03/23 05:09:13;;;;;;;27.43;18.13;;;;;;;5.84;100.00;98934.16;6199413;23;20169;-86
2023/03/23 05:11:40;;;;;;;18.13;12.90;;;;;;;5.95;100.00;98932.75;6148145;23;20169;-85
2023/03/23 05:14:08;;;;;;;18.53;13.13;;;;;;;6.04;100.00;98936.84;6172314;23;20174;-85
2023/03/23 05:16:37;;;;;;;11.67;9.83;;;;;;;6.11;100.00;98935.00;6171894;23;20169;-88
2023/03/23 05:19:04;;;;;;;10.87;8.50;;;;;;;6.21;100.00;98940.69;6171978;23;20260;-86
2023/03/23 05:21:31;;;;;;;8.67;7.33;;;;;;;6.27;100.00;98939.03;6196747;23;20658;-87
2023/03/23 05:24:00;;;;;;;7.33;6.53;;;;;;;6.37;100.00;98944.75;6171520;23;20175;-85
2023/03/23 05:26:32;;;;;;;8.20;6.60;;;;;;;6.39;100.00;98951.47;6221088;23;20168;-86
2023/03/23 05:29:04;;;;;;;9.03;6.20;;;;;;;6.53;100.00;98941.63;6175271;23;20176;-84
2023/03/23 05:31:40;;;;;;;7.03;6.30;;;;;;;6.70;100.00;98948.13;6249220;22;20194;-84
2023/03/23 05:34:06;;;;;;;6.87;6.27;;;;;;;6.78;100.00;98945.22;6221750;22;20252;-85
2023/03/23 05:36:38;;;;;;;6.30;5.70;;;;;;;6.89;100.00;98951.72;6174537;23;20165;-86
2023/03/23 05:39:14;;;;;;;6.47;5.80;;;;;;;7.04;100.00;98957.59;6174293;23;20238;-85
2023/03/23 05:41:58;;;;;;;5.97;5.37;;;;;;;7.11;100.00;98957.53;6225394;23;20163;-85
2023/03/23 05:44:31;;;;;;;5.90;5.30;;;;;;;7.27;100.00;98957.03;6221102;23;20240;-87
2023/03/23 05:46:58;;;;;;;6.20;5.60;;;;;;;7.40;100.00;98965.78;6171734;23;20223;-84
2023/03/23 05:49:27;;;;;;;5.57;4.90;;;;;;;7.60;100.00;98964.81;6171137;23;20165;-87
2023/03/23 05:51:54;;;;;;;6.90;5.53;;;;;;;7.76;100.00;98964.28;6195986;23;20168;-85
2023/03/23 05:54:22;;;;;;;6.33;5.70;;;;;;;7.95;100.00;98960.63;6172813;23;20642;-86
2023/03/23 05:56:51;;;;;;;6.10;5.50;;;;;;;8.19;100.00;98961.63;6172435;23;20183;-85
2023/03/23 05:59:35;;;;;;;9.73;5.83;;;;;;;8.46;100.00;98968.38;6178857;23;20257;-86
2023/03/23 06:02:13;;;;;;;6.10;5.37;;;;;;;8.69;100.00;98971.19;6151772;23;20171;-85
2023/03/23 06:04:43;;;;;;;6.73;5.43;;;;;;;8.94;100.00;98968.44;6148933;23;20710;-85
2023/03/23 06:07:15;;;;;;;5.73;5.23;;;;;;;9.16;100.00;98971.41;6150753;23;20185;-86
2023/03/23 06:09:52;;;;;;;6.47;5.17;;;;;;;9.35;100.00;98966.84;6174450;23;20165;-87
2023/03/23 06:12:24;;;;;;;5.40;4.90;;;;;;;9.50;100.00;98976.09;6198753;23;20149;-87
2023/03/23 06:15:10;;;;;;;8.20;5.27;;;;;;;9.59;100.00;98972.03;6183353;23;20253;-86
2023/03/23 06:17:59;;;;;;;8.87;5.63;;;;;;;9.74;100.00;98974.28;6185543;23;20169;-82
2023/03/23 06:20:32;;;;;;;5.67;4.97;;;;;;;9.92;100.00;98973.38;6174766;23;20188;-87
2023/03/23 06:23:03;;;;;;;6.87;5.23;;;;;;;10.09;100.00;98977.00;6198261;23;20165;-84
2023/03/23 06:25:31;;;;;;;5.67;4.97;;;;;;;10.23;100.00;98977.59;6173517;23;20216;-84
2023/03/23 06:27:58;;;;;;;5.40;4.90;;;;;;;10.40;100.00;98979.38;6172467;23;20180;-86
2023/03/23 06:30:27;;;;;;;5.50;5.00;;;;;;;10.57;100.00;98980.28;6173246;23;20165;-85
2023/03/23 06:32:53;;;;;;;9.27;5.20;;;;;;;10.77;100.00;98987.13;6197555;23;20169;-83
2023/03/23 06:35:34;;;;;;;5.83;4.63;;;;;;;10.92;100.00;98982.03;6200775;23;20180;-84
2023/03/23 06:38:13;;;;;;;7.87;4.80;;;;;;;11.04;99.79;98972.94;6181278;23;20665;-86
2023/03/23 06:40:55;;;;;;;5.27;4.50;;;;;;;11.25;99.35;98979.50;6179228;23;20222;-86
2023/03/23 06:43:24;;;;;;;7.13;4.57;;;;;;;11.35;99.03;98981.56;6222989;23;20173;-87
2023/03/23 06:45:58;;;;;;;5.10;4.60;;;;;;;11.54;97.84;98982.97;6199795;23;20185;-85
2023/03/23 06:48:56;;;;;;;5.33;4.57;;;;;;;11.84;96.41;98983.56;6193171;23;20169;-85
2023/03/23 06:51:33;;;;;;;5.40;4.37;;;;;;;12.12;94.93;98984.53;6176896;23;20168;-86
2023/03/23 06:53:59;;;;;;;4.80;4.30;;;;;;;12.37;92.95;98987.56;6172469;23;20173;-86
2023/03/23 06:56:27;;;;;;;5.90;4.43;;;;;;;12.69;91.05;98987.78;6199124;23;20172;-87
2023/03/23 06:58:53;;;;;;;5.73;4.47;;;;;;;12.98;89.98;98974.94;6189698;22;20529;-85
2023/03/23 07:01:20;;;;;;;7.17;4.40;;;;;;;13.32;88.51;98989.09;6228429;22;20160;-87
2023/03/23 07:03:55;;;;;;;9.67;5.10;;;;;;;13.56;86.83;98991.25;6183357;22;20163;-85
2023/03/23 07:06:30;;;;;;;6.20;4.67;;;;;;;13.79;85.65;98992.81;6183957;22;20193;-84
2023/03/23 07:08:59;;;;;;;5.03;4.53;;;;;;;13.96;84.25;98990.78;6180195;22;20169;-85
2023/03/23 07:11:27;;;;;;;5.37;4.30;;;;;;;14.10;83.14;98997.38;6203867;22;20178;-85
2023/03/23 07:13:54;;;;;;;6.47;4.40;;;;;;;14.16;83.51;98989.31;6202814;22;20173;-86
2023/03/23 07:16:20;;;;;;;6.93;4.77;;;;;;;14.33;82.12;99001.56;6202286;22;20670;-86
2023/03/23 07:18:46;;;;;;;6.20;4.23;;;;;;;14.37;81.80;98997.31;6177729;22;20176;-84
2023/03/23 07:21:12;;;;;;;8.03;4.67;;;;;;;14.49;81.09;99005.22;6202127;22;20167;-86
2023/03/23 07:23:39;;;;;;;5.53;4.33;;;;;;;14.54;80.41;98999.88;6202871;22;20166;-85
2023/03/23 07:26:09;;;;;;;6.07;4.10;;;;;;;14.59;80.40;98994.50;6179369;22;20187;-84
2023/03/23 07:28:47;;;;;;;4.93;4.20;;;;;;;14.80;79.76;98998.13;6206892;22;20190;-85
2023/03/23 07:31:22;;;;;;;6.83;4.20;;;;;;;14.89;79.56;98991.97;6208142;22;20158;-84
2023/03/23 07:33:48;;;;;;;6.93;4.00;;;;;;;15.01;79.20;98997.16;6202204;22;20178;-84
2023/03/23 07:36:14;;;;;;;5.83;4.13;;;;;;;15.12;78.68;98997.97;6227521;22;20165;-84
2023/03/23 07:38:41;;;;;;;4.87;4.10;;;;;;;15.17;78.25;98998.81;6202048;22;20179;-84
2023/03/23 07:41:07;;;;;;;5.60;4.17;;;;;;;15.25;78.83;99003.72;6227026;22;20179;-85
2023/03/23 07:43:35;;;;;;;6.80;4.20;;;;;;;15.35;78.43;99000.25;6203099;22;20187;-84
2023/03/23 07:46:20;;;;;;;6.60;4.80;;;;;;;15.44;77.69;98994.03;6210027;22;20199;-87
2023/03/23 07:48:56;;;;;;;7.50;4.63;;;;;;;15.63;77.79;98990.91;6229681;22;20210;-83
2023/03/23 07:51:29;;;;;;;4.93;4.37;;;;;;;15.77;76.97;98987.38;6229594;22;20161;-84
2023/03/23 07:53:55;;;;;;;5.43;4.10;;;;;;;15.91;76.70;98987.66;6202304;22;20247;-84
2023/03/23 07:56:41;;;;;;;7.13;3.87;;;;;;;16.05;76.29;98986.03;6236734;22;20165;-84
2023/03/23 07:59:16;;;;;;;9.27;4.53;;;;;;;16.14;76.21;98984.41;6209982;22;20214;-84
2023/03/23 08:01:42;;;;;;;6.13;4.30;;;;;;;16.34;75.66;98980.88;6204928;22;20164;-84
2023/03/23 08:04:44;;;;;;;8.27;6.60;;;;;;;16.52;74.08;98976.78;6215084;22;20709;-83
2023/03/23 08:07:28;;;;;;;9.00;4.80;;;;;;;16.64;73.38;98972.75;6210351;22;20585;-83
2023/03/23 08:10:17;;;;;;;9.00;6.37;;;;;;;16.83;73.20;98977.56;6210798;22;20168;-85
2023/03/23 08:13:03;;;;;;;5.97;5.37;;;;;;;16.96;72.20;98985.09;6216678;22;20168;-85
2023/03/23 08:15:52;;;;;;;8.03;4.50;;;;;;;17.14;71.60;98998.00;6239898;22;20172;-84
2023/03/23 08:18:38;;;;;;;5.90;4.67;;;;;;;17.30;70.93;99004.16;6235426;22;20493;-83
2023/03/23 08:21:22;;;;;;;6.73;4.60;;;;;;;17.51;70.05;98992.94;6235467;22;20157;-85
2023/03/23 08:24:06;;;;;;;4.70;4.23;;;;;;;17.69;69.35;98994.22;6177005;23;20188;-84
2023/03/23 08:26:54;;;;;;;6.03;4.80;;;;;;;17.96;68.59;98991.84;6224092;22;20191;-84
2023/03/23 08:29:38;;;;;;;6.70;5.07;;;;;;;18.12;67.77;98994.44;6232211;22;20176;-84
2023/03/23 08:32:14;;;;;;;7.67;5.00;;;;;;;18.34;67.04;99001.00;6231170;22;20160;-83
2023/03/23 08:34:52;;;;;;;5.00;4.50;;;;;;;18.41;65.73;98992.56;6207583;22;20448;-84
2023/03/23 08:37:38;;;;;;;5.80;4.43;;;;;;;18.35;65.39;98991.78;6225385;22;20168;-84
2023/03/23 08:40:24;;;;;;;5.87;5.20;;;;;;;18.24;65.34;98990.28;6236053;22;20290;-83
2023/03/23 08:43:13;;;;;;;6.00;4.53;;;;;;;18.04;66.02;98980.41;6189130;22;20196;-83
2023/03/23 08:46:14;;;;;;;7.50;5.30;;;;;;;17.76;66.70;98975.75;6224485;22;20270;-85
2023/03/23 08:49:00;;;;;;;5.20;4.70;;;;;;;17.55;67.49;98972.34;6220057;22;20501;-85
2023/03/23 08:51:47;;;;;;;8.93;6.73;;;;;;;17.33;67.45;98971.94;6210836;22;20169;-84
2023/03/23 08:54:27;;;;;;;7.13;5.10;;;;;;;17.14;67.55;98974.47;6184547;22;20167;-85
2023/03/23 08:57:15;;;;;;;7.63;4.87;;;;;;;16.98;67.70;98972.91;6191091;22;20165;-84
2023/03/23 09:00:13;;;;;;;6.47;5.17;;;;;;;16.82;68.43;98975.94;6236264;22;20176;-84
2023/03/23 09:03:03;;;;;;;6.40;4.70;;;;;;;16.68;68.77;98990.06;6234668;22;20169;-84
2023/03/23 09:05:57;;;;;;;7.70;5.10;;;;;;;16.68;69.17;98992.75;6216561;22;20176;-84
2023/03/23 09:08:26;;;;;;;8.80;5.40;;;;;;;16.64;69.93;98999.81;6206446;22;20184;-84
2023/03/23 09:10:51;;;;;;;6.33;5.13;;;;;;;16.50;70.13;99004.13;6192800;22;20172;-85
2023/03/23 09:13:17;;;;;;;6.33;4.83;;;;;;;16.32;70.50;99003.88;6226424;23;20170;-85
2023/03/23 09:15:43;;;;;;;7.80;5.27;;;;;;;16.09;70.53;98994.44;6201330;22;20169;-84
2023/03/23 09:18:09;;;;;;;5.67;4.90;;;;;;;16.05;71.23;98983.34;6227694;23;20165;-84
2023/03/23 09:20:36;;;;;;;7.47;5.30;;;;;;;16.20;71.05;98983.34;6225621;22;20172;-85
2023/03/23 09:23:03;;;;;;;8.40;6.87;;;;;;;16.26;71.44;98990.38;6208532;22;20169;-83
2023/03/23 09:25:28;;;;;;;22.87;18.40;;;;;;;16.37;71.14;98993.06;6209444;22;20334;-83
2023/03/23 09:27:56;;;;;;;10.40;8.27;;;;;;;16.46;71.48;98994.94;6233832;22;20220;-84
2023/03/23 09:30:27;;;;;;;8.00;6.60;;;;;;;16.66;70.71;98986.81;6208879;22;20623;-84
2023/03/23 09:32:54;;;;;;;6.77;6.07;;;;;;;16.86;71.03;98985.94;6208887;22;20196;-84
2023/03/23 09:35:21;;;;;;;6.57;5.70;;;;;;;17.06;70.26;98987.75;6208011;22;20224;-85
2023/03/23 09:37:48;;;;;;;8.47;5.97;;;;;;;16.90;71.03;98984.28;6207041;22;20255;-84
2023/03/23 09:40:25;;;;;;;9.07;5.30;;;;;;;17.23;70.74;98988.22;6208796;22;20172;-85
2023/03/23 09:43:13;;;;;;;6.77;5.67;;;;;;;17.47;69.39;98989.19;6184382;22;20160;-84
2023/03/23 09:45:52;;;;;;;6.77;6.13;;;;;;;17.35;68.89;98994.13;6208965;22;20184;-84
2023/03/23 09:48:33;;;;;;;7.57;6.30;;;;;;;17.63;69.24;98984.53;6208964;22;20168;-84
2023/03/23 09:51:04;;;;;;;7.23;6.00;;;;;;;17.71;68.33;98986.63;6208149;22;20164;-85
2023/03/23 09:53:37;;;;;;;7.47;6.37;;;;;;;17.64;68.30;98988.81;6208411;22;20165;-85
2023/03/23 09:56:09;;;;;;;8.67;6.70;;;;;;;17.56;69.39;98992.09;6208638;22;20169;-86
2023/03/23 09:58:46;;;;;;;7.30;6.60;;;;;;;17.73;68.63;98992.56;6208884;22;20223;-84
2023/03/23 10:01:23;;;;;;;9.33;6.83;;;;;;;17.88;68.00;98989.75;6232895;22;20148;-85
2023/03/23 10:03:55;;;;;;;7.47;6.77;;;;;;;18.04;69.09;98990.44;6203396;22;20230;-84
2023/03/23 10:06:21;;;;;;;10.20;6.83;;;;;;;17.81;70.39;98983.84;6205288;22;20218;-84
2023/03/23 10:08:55;;;;;;;9.43;6.90;;;;;;;18.16;69.52;98981.94;6179789;22;20176;-85
2023/03/23 10:11:30;;;;;;;8.00;7.03;;;;;;;18.38;68.32;98982.28;6176833;22;20152;-84
2023/03/23 10:14:10;;;;;;;10.67;7.47;;;;;;;18.60;66.96;98974.50;6225814;22;20578;-85
2023/03/23 10:17:13;;;;;;;11.27;7.60;;;;;;;18.23;66.54;98977.00;6181415;22;20176;-85
2023/03/23 10:20:07;;;;;;;7.80;6.90;;;;;;;18.61;66.88;98969.88;6183132;22;20164;-86
2023/03/23 10:22:39;;;;;;;8.43;7.60;;;;;;;18.91;65.66;98973.06;6225927;22;20579;-85
2023/03/23 10:25:19;;;;;;;10.13;7.27;;;;;;;19.16;64.78;98971.13;6200290;22;20217;-85
2023/03/23 10:28:08;;;;;;;8.90;6.93;;;;;;;19.38;63.67;98960.50;6223872;22;20153;-84
2023/03/23 10:30:48;;;;;;;7.40;6.70;;;;;;;19.60;62.79;98955.31;6151485;22;20208;-85
2023/03/23 10:33:22;;;;;;;9.00;6.20;;;;;;;19.68;62.29;98957.38;6195224;23;20167;-85
2023/03/23 10:35:53;;;;;;;6.40;5.73;;;;;;;19.83;59.89;98955.53;6198057;22;20184;-86
2023/03/23 10:38:42;;;;;;;9.60;5.50;;;;;;;19.91;59.13;98952.94;6200610;22;20170;-85
2023/03/23 10:41:17;;;;;;;6.60;5.97;;;;;;;20.09;59.17;98946.66;6225233;22;20167;-84
2023/03/23 10:43:44;;;;;;;6.73;5.77;;;;;;;20.31;59.50;98950.66;6200388;22;20184;-85
2023/03/23 10:46:16;;;;;;;6.27;5.67;;;;;;;20.48;59.13;98956.34;6195276;22;20226;-85
2023/03/23 10:48:43;;;;;;;6.93;6.33;;;;;;;20.58;59.38;98945.25;6197904;22;20155;-85
2023/03/23 10:51:12;;;;;;;6.63;5.73;;;;;;;20.72;57.95;98942.56;6200037;22;20198;-84
2023/03/23 10:53:47;;;;;;;6.53;5.93;;;;;;;20.81;57.23;98932.56;6200263;22;20203;-84
2023/03/23 10:56:27;;;;;;;7.37;5.63;;;;;;;20.96;57.13;98932.22;6175537;22;20174;-85
2023/03/23 10:58:53;;;;;;;6.43;5.07;;;;;;;20.95;57.07;98925.97;6169852;23;20205;-85
2023/03/23 11:01:27;;;;;;;5.90;5.30;;;;;;;21.02;55.80;98925.59;6219433;23;20176;-85
2023/03/23 11:03:53;;;;;;;5.17;4.77;;;;;;;21.18;54.69;98926.91;6221518;23;20164;-84
2023/03/23 11:06:22;;;;;;;8.63;5.00;;;;;;;21.23;55.07;98920.53;6146846;23;20229;-85
2023/03/23 11:08:53;;;;;;;7.83;5.43;;;;;;;21.03;55.01;98911.66;6221466;23;20257;-84
2023/03/23 11:11:21;;;;;;;6.20;5.10;;;;;;;21.30;55.04;98910.84;6221902;23;20172;-84
2023/03/23 11:13:48;;;;;;;5.90;5.23;;;;;;;21.49;54.98;98911.47;6195204;23;20175;-84
2023/03/23 11:16:35;;;;;;;5.40;4.90;;;;;;;21.59;54.57;98915.06;6221568;23;20180;-84
2023/03/23 11:19:15;;;;;;;5.13;4.67;;;;;;;21.87;53.34;98917.38;6221482;23;20212;-84
2023/03/23 11:21:47;;;;;;;4.93;4.47;;;;;;;21.94;53.60;98912.31;6221161;23;20175;-85
2023/03/23 11:24:13;;;;;;;6.57;5.67;;;;;;;22.13;53.50;98909.38;6196270;23;20154;-85
2023/03/23 11:26:39;;;;;;;6.30;5.70;;;;;;;22.24;52.24;98902.56;6189979;23;20165;-85
2023/03/23 11:29:04;;;;;;;5.67;5.13;;;;;;;22.52;51.67;98911.34;6146707;23;20253;-85
2023/03/23 11:31:41;;;;;;;5.37;4.60;;;;;;;22.90;49.30;98908.94;6171198;23;20168;-85
2023/03/23 11:34:17;;;;;;;6.90;5.00;;;;;;;22.81;49.40;98902.66;6221199;23;20548;-84
2023/03/23 11:36:48;;;;;;;6.40;5.80;;;;;;;23.22;49.56;98894.84;6221566;23;20156;-84
2023/03/23 11:39:29;;;;;;;5.55;4.97;;;;;;;23.47;48.02;98901.47;6221266;23;20883;-84
2023/03/23 11:41:57;;;;;;;6.40;5.00;;;;;;;23.41;48.88;98894.53;6196120;23;20165;-85
2023/03/23 11:44:24;;;;;;;8.05;5.60;;;;;;;23.54;49.35;98904.53;6195701;23;20172;-84
2023/03/23 11:47:29;;;;;;;6.00;5.40;;;;;;;23.72;49.21;98891.66;6196080;23;20176;-85
2023/03/23 11:50:20;;;;;;;6.38;5.20;;;;;;;24.07;48.45;98889.66;6195574;23;20172;-83
2023/03/23 11:52:46;;;;;;;7.70;5.50;;;;;;;24.29;47.62;98881.25;6220900;23;20592;-84
2023/03/23 11:55:36;;;;;;;7.85;4.95;;;;;;;24.47;47.17;98882.78;6187336;23;20175;-84
2023/03/23 11:58:09;;;;;;;6.05;4.82;;;;;;;24.90;46.82;98881.78;6210292;23;20247;-85
2023/03/23 12:00:35;;;;;;;5.10;4.50;;;;;;;25.36;43.73;98878.88;6171531;23;20177;-87
2023/03/23 12:03:12;;;;;;;4.53;3.90;;;;;;;25.75;42.68;98877.63;6196340;23;20157;-85